sensor_id;sensor_type;location;lat;lon;timestamp;pressure;altitude;pressure_sealevel;temperature;humidity
47883;BME280;37739;50.350;7.578;2022-07-22T00:01:17;100218.38;;;19.95;66.60
47883;BME280;37739;50.350;7.578;2022-07-22T00:03:42;100223.56;;;19.87;66.39
47883;BME280;37739;50.350;7.578;2022-07-22T00:06:08;100224.41;;;19.88;66.78
47883;BME280;37739;50.350;7.578;2022-07-22T00:08:36;100220.81;;;19.70;66.96
47883;BME280;37739;50.350;7.578;2022-07-22T00:11:01;100223.38;;;19.64;67.29
47883;BME280;37739;50.350;7.578;2022-07-22T00:13:27;100214.59;;;19.51;67.34
47883;BME280;37739;50.350;7.578;2022-07-22T00:15:54;100217.28;;;19.62;67.05
47883;BME280;37739;50.350;7.578;2022-07-22T00:18:19;100205.88;;;19.43;67.65
47883;BME280;37739;50.350;7.578;2022-07-22T00:20:50;100211.03;;;19.35;68.23
47883;BME280;37739;50.350;7.578;2022-07-22T00:23:15;100208.47;;;19.40;67.83
47883;BME280;37739;50.350;7.578;2022-07-22T00:25:41;100207.69;;;19.53;67.41
47883;BME280;37739;50.350;7.578;2022-07-22T00:28:06;100205.03;;;19.42;67.75
47883;BME280;37739;50.350;7.578;2022-07-22T00:30:34;100204.19;;;19.51;67.20
47883;BME280;37739;50.350;7.578;2022-07-22T00:32:59;100217.28;;;19.57;67.36
47883;BME280;37739;50.350;7.578;2022-07-22T00:35:25;100200.72;;;19.51;67.26
47883;BME280;37739;50.350;7.578;2022-07-22T00:37:50;100193.75;;;19.42;67.78
47883;BME280;37739;50.350;7.578;2022-07-22T00:40:20;100198.84;;;19.30;68.47
47883;BME280;37739;50.350;7.578;2022-07-22T00:42:45;100192.81;;;19.35;67.80
47883;BME280;37739;50.350;7.578;2022-07-22T00:45:10;100207.66;;;19.49;67.64
47883;BME280;37739;50.350;7.578;2022-07-22T00:47:36;100204.22;;;19.50;67.48
47883;BME280;37739;50.350;7.578;2022-07-22T00:50:02;100204.25;;;19.57;67.25
47883;BME280;37739;50.350;7.578;2022-07-22T00:52:31;100203.34;;;19.52;67.10
47883;BME280;37739;50.350;7.578;2022-07-22T00:55:00;100195.50;;;19.46;67.52
47883;BME280;37739;50.350;7.578;2022-07-22T00:57:25;100195.63;;;19.63;66.89
47883;BME280;37739;50.350;7.578;2022-07-22T00:59:53;100189.63;;;19.73;66.68
47883;BME280;37739;50.350;7.578;2022-07-22T01:02:19;100205.25;;;19.73;66.56
47883;BME280;37739;50.350;7.578;2022-07-22T01:04:44;100200.00;;;19.67;66.59
47883;BME280;37739;50.350;7.578;2022-07-22T01:07:10;100194.63;;;19.44;67.67
47883;BME280;37739;50.350;7.578;2022-07-22T01:09:35;100194.59;;;19.42;67.55
47883;BME280;37739;50.350;7.578;2022-07-22T01:12:04;100194.69;;;19.56;67.13
47883;BME280;37739;50.350;7.578;2022-07-22T01:14:30;100195.56;;;19.55;67.11
47883;BME280;37739;50.350;7.578;2022-07-22T01:16:57;100192.16;;;19.66;66.67
47883;BME280;37739;50.350;7.578;2022-07-22T01:19:27;100180.88;;;19.67;66.50
47883;BME280;37739;50.350;7.578;2022-07-22T01:21:53;100187.78;;;19.55;66.92
47883;BME280;37739;50.350;7.578;2022-07-22T01:24:19;100191.22;;;19.59;66.34
47883;BME280;37739;50.350;7.578;2022-07-22T01:26:46;100197.28;;;19.55;66.65
47883;BME280;37739;50.350;7.578;2022-07-22T01:29:12;100199.03;;;19.56;66.25
47883;BME280;37739;50.350;7.578;2022-07-22T01:31:37;100192.00;;;19.42;66.32
47883;BME280;37739;50.350;7.578;2022-07-22T01:34:03;100195.41;;;19.31;66.21
47883;BME280;37739;50.350;7.578;2022-07-22T01:36:31;100199.72;;;19.29;65.95
47883;BME280;37739;50.350;7.578;2022-07-22T01:38:56;100191.78;;;19.13;66.66
47883;BME280;37739;50.350;7.578;2022-07-22T01:41:22;100197.94;;;19.23;66.10
47883;BME280;37739;50.350;7.578;2022-07-22T01:43:47;100191.06;;;19.31;65.80
47883;BME280;37739;50.350;7.578;2022-07-22T01:46:13;100197.13;;;19.32;65.58
47883;BME280;37739;50.350;7.578;2022-07-22T01:48:40;100192.91;;;19.46;64.86
47883;BME280;37739;50.350;7.578;2022-07-22T01:51:08;100197.28;;;19.52;64.92
47883;BME280;37739;50.350;7.578;2022-07-22T01:53:33;100195.38;;;19.29;65.29
47883;BME280;37739;50.350;7.578;2022-07-22T01:55:58;100190.25;;;19.41;65.04
47883;BME280;37739;50.350;7.578;2022-07-22T01:58:30;100193.75;;;19.45;64.92
47883;BME280;37739;50.350;7.578;2022-07-22T02:00:55;100189.34;;;19.38;65.19
47883;BME280;37739;50.350;7.578;2022-07-22T02:03:21;100191.78;;;19.16;66.01
47883;BME280;37739;50.350;7.578;2022-07-22T02:05:46;100196.19;;;19.19;66.18
47883;BME280;37739;50.350;7.578;2022-07-22T02:08:11;100196.22;;;19.28;65.66
47883;BME280;37739;50.350;7.578;2022-07-22T02:10:38;100186.56;;;19.15;66.23
47883;BME280;37739;50.350;7.578;2022-07-22T02:13:11;100183.22;;;19.30;65.34
47883;BME280;37739;50.350;7.578;2022-07-22T02:15:36;100187.63;;;19.32;65.44
47883;BME280;37739;50.350;7.578;2022-07-22T02:18:13;100188.41;;;19.28;66.09
47883;BME280;37739;50.350;7.578;2022-07-22T02:20:38;100185.78;;;19.23;65.77
47883;BME280;37739;50.350;7.578;2022-07-22T02:23:04;100189.19;;;19.15;65.63
47883;BME280;37739;50.350;7.578;2022-07-22T02:25:32;100185.69;;;19.13;65.87
47883;BME280;37739;50.350;7.578;2022-07-22T02:28:00;100181.38;;;19.15;65.65
47883;BME280;37739;50.350;7.578;2022-07-22T02:30:26;100174.53;;;19.23;65.00
47883;BME280;37739;50.350;7.578;2022-07-22T02:32:51;100183.22;;;19.28;65.03
47883;BME280;37739;50.350;7.578;2022-07-22T02:35:21;100185.88;;;19.36;64.23
47883;BME280;37739;50.350;7.578;2022-07-22T02:37:49;100179.78;;;19.29;64.50
47883;BME280;37739;50.350;7.578;2022-07-22T02:40:14;100181.50;;;19.32;64.56
47883;BME280;37739;50.350;7.578;2022-07-22T02:42:42;100181.56;;;19.39;64.24
47883;BME280;37739;50.350;7.578;2022-07-22T02:45:08;100178.09;;;19.34;64.17
47883;BME280;37739;50.350;7.578;2022-07-22T02:47:33;100171.97;;;19.29;64.79
47883;BME280;37739;50.350;7.578;2022-07-22T02:50:01;100177.97;;;19.22;64.95
47883;BME280;37739;50.350;7.578;2022-07-22T02:52:29;100185.84;;;19.27;64.77
47883;BME280;37739;50.350;7.578;2022-07-22T02:54:59;100183.16;;;19.19;65.31
47883;BME280;37739;50.350;7.578;2022-07-22T02:57:26;100181.38;;;19.15;65.78
47883;BME280;37739;50.350;7.578;2022-07-22T02:59:54;100178.91;;;19.32;65.45
47883;BME280;37739;50.350;7.578;2022-07-22T03:02:19;100174.59;;;19.31;65.78
47883;BME280;37739;50.350;7.578;2022-07-22T03:04:49;100178.88;;;19.27;65.85
47883;BME280;37739;50.350;7.578;2022-07-22T03:07:17;100180.56;;;19.20;66.34
47883;BME280;37739;50.350;7.578;2022-07-22T03:09:45;100187.47;;;19.15;67.09
47883;BME280;37739;50.350;7.578;2022-07-22T03:12:10;100185.69;;;19.13;67.09
47883;BME280;37739;50.350;7.578;2022-07-22T03:14:35;100187.47;;;19.18;66.89
47883;BME280;37739;50.350;7.578;2022-07-22T03:17:03;100191.03;;;19.28;66.44
47883;BME280;37739;50.350;7.578;2022-07-22T03:19:28;100183.97;;;19.15;67.01
47883;BME280;37739;50.350;7.578;2022-07-22T03:21:54;100184.13;;;19.32;66.74
47883;BME280;37739;50.350;7.578;2022-07-22T03:24:19;100188.44;;;19.27;67.06
47883;BME280;37739;50.350;7.578;2022-07-22T03:26:44;100191.78;;;19.13;67.22
47883;BME280;37739;50.350;7.578;2022-07-22T03:29:10;100192.56;;;19.05;67.39
47883;BME280;37739;50.350;7.578;2022-07-22T03:31:38;100195.06;;;18.92;68.35
47883;BME280;37739;50.350;7.578;2022-07-22T03:34:05;100196.72;;;18.82;68.42
47883;BME280;37739;50.350;7.578;2022-07-22T03:36:30;100195.97;;;18.94;68.53
47883;BME280;37739;50.350;7.578;2022-07-22T03:38:56;100195.97;;;18.99;67.93
47883;BME280;37739;50.350;7.578;2022-07-22T03:41:24;100187.31;;;18.98;67.90
47883;BME280;37739;50.350;7.578;2022-07-22T03:43:49;100195.03;;;18.89;68.36
47883;BME280;37739;50.350;7.578;2022-07-22T03:46:17;100200.41;;;19.08;67.62
47883;BME280;37739;50.350;7.578;2022-07-22T03:48:42;100197.84;;;19.14;67.62
47883;BME280;37739;50.350;7.578;2022-07-22T03:51:07;100192.63;;;19.11;67.71
47883;BME280;37739;50.350;7.578;2022-07-22T03:53:32;100193.44;;;19.02;67.92
47883;BME280;37739;50.350;7.578;2022-07-22T03:55:59;100197.69;;;18.97;67.95
47883;BME280;37739;50.350;7.578;2022-07-22T03:58:24;100191.69;;;19.02;67.61
47883;BME280;37739;50.350;7.578;2022-07-22T04:00:51;100191.59;;;18.93;67.83
47883;BME280;37739;50.350;7.578;2022-07-22T04:03:17;100196.88;;;19.02;67.83
47883;BME280;37739;50.350;7.578;2022-07-22T04:05:42;100197.81;;;19.11;67.88
47883;BME280;37739;50.350;7.578;2022-07-22T04:08:11;100196.94;;;19.09;67.89
47883;BME280;37739;50.350;7.578;2022-07-22T04:10:36;100191.78;;;19.15;67.43
47883;BME280;37739;50.350;7.578;2022-07-22T04:13:04;100200.47;;;19.18;67.33
47883;BME280;37739;50.350;7.578;2022-07-22T04:15:32;100196.97;;;19.12;68.04
47883;BME280;37739;50.350;7.578;2022-07-22T04:17:57;100204.78;;;19.13;67.67
47883;BME280;37739;50.350;7.578;2022-07-22T04:20:25;100198.78;;;19.19;67.33
47883;BME280;37739;50.350;7.578;2022-07-22T04:22:53;100193.63;;;19.28;67.48
47883;BME280;37739;50.350;7.578;2022-07-22T04:25:21;100196.13;;;19.14;67.88
47883;BME280;37739;50.350;7.578;2022-07-22T04:27:48;100194.34;;;19.09;67.58
47883;BME280;37739;50.350;7.578;2022-07-22T04:30:14;100189.13;;;19.07;68.00
47883;BME280;37739;50.350;7.578;2022-07-22T04:32:44;100195.16;;;19.00;68.47
47883;BME280;37739;50.350;7.578;2022-07-22T04:35:12;100193.44;;;19.05;67.84
47883;BME280;37739;50.350;7.578;2022-07-22T04:37:42;100195.06;;;18.91;68.64
47883;BME280;37739;50.350;7.578;2022-07-22T04:40:08;100194.16;;;18.89;68.51
47883;BME280;37739;50.350;7.578;2022-07-22T04:42:33;100195.91;;;18.88;68.75
47883;BME280;37739;50.350;7.578;2022-07-22T04:44:58;100193.25;;;18.85;68.85
47883;BME280;37739;50.350;7.578;2022-07-22T04:47:26;100190.72;;;18.93;68.70
47883;BME280;37739;50.350;7.578;2022-07-22T04:49:52;100186.38;;;18.92;68.79
47883;BME280;37739;50.350;7.578;2022-07-22T04:52:18;100192.56;;;19.01;68.26
47883;BME280;37739;50.350;7.578;2022-07-22T04:54:43;100196.84;;;18.99;68.22
47883;BME280;37739;50.350;7.578;2022-07-22T04:57:08;100194.16;;;18.89;68.81
47883;BME280;37739;50.350;7.578;2022-07-22T04:59:34;100194.16;;;18.87;68.98
47883;BME280;37739;50.350;7.578;2022-07-22T05:01:59;100192.44;;;18.91;68.94
47883;BME280;37739;50.350;7.578;2022-07-22T05:04:24;100187.22;;;18.86;68.87
47883;BME280;37739;50.350;7.578;2022-07-22T05:06:49;100189.69;;;18.77;69.40
47883;BME280;37739;50.350;7.578;2022-07-22T05:09:17;100187.84;;;18.68;69.44
47883;BME280;37739;50.350;7.578;2022-07-22T05:11:43;100180.84;;;18.59;69.70
47883;BME280;37739;50.350;7.578;2022-07-22T05:14:08;100184.34;;;18.61;69.59
47883;BME280;37739;50.350;7.578;2022-07-22T05:16:35;100185.31;;;18.73;69.05
47883;BME280;37739;50.350;7.578;2022-07-22T05:19:04;100186.22;;;18.78;68.43
47883;BME280;37739;50.350;7.578;2022-07-22T05:21:32;100184.53;;;18.80;68.08
47883;BME280;37739;50.350;7.578;2022-07-22T05:23:58;100182.91;;;18.90;67.77
47883;BME280;37739;50.350;7.578;2022-07-22T05:26:23;100175.97;;;18.89;67.71
47883;BME280;37739;50.350;7.578;2022-07-22T05:28:49;100181.25;;;18.99;67.16
47883;BME280;37739;50.350;7.578;2022-07-22T05:31:19;100179.53;;;19.00;67.21
47883;BME280;37739;50.350;7.578;2022-07-22T05:33:47;100186.41;;;18.95;67.43
47883;BME280;37739;50.350;7.578;2022-07-22T05:36:12;100173.47;;;19.02;67.14
47883;BME280;37739;50.350;7.578;2022-07-22T05:38:38;100180.34;;;18.94;67.28
47883;BME280;37739;50.350;7.578;2022-07-22T05:41:03;100175.97;;;18.89;67.13
47883;BME280;37739;50.350;7.578;2022-07-22T05:43:28;100172.31;;;18.71;67.50
47883;BME280;37739;50.350;7.578;2022-07-22T05:45:59;100174.94;;;18.73;67.55
47883;BME280;37739;50.350;7.578;2022-07-22T05:48:24;100179.22;;;18.69;67.56
47883;BME280;37739;50.350;7.578;2022-07-22T05:50:49;100181.25;;;19.01;66.81
47883;BME280;37739;50.350;7.578;2022-07-22T05:53:15;100177.22;;;19.32;65.92
47883;BME280;37739;50.350;7.578;2022-07-22T05:55:40;100182.50;;;19.49;65.06
47883;BME280;37739;50.350;7.578;2022-07-22T05:58:06;100188.41;;;19.25;65.82
47883;BME280;37739;50.350;7.578;2022-07-22T06:00:31;100182.19;;;19.06;65.69
47883;BME280;37739;50.350;7.578;2022-07-22T06:02:56;100182.28;;;19.18;66.02
47883;BME280;37739;50.350;7.578;2022-07-22T06:05:22;100184.00;;;19.16;65.88
47883;BME280;37739;50.350;7.578;2022-07-22T06:07:50;100181.41;;;19.18;65.57
47883;BME280;37739;50.350;7.578;2022-07-22T06:10:17;100173.72;;;19.29;64.73
47883;BME280;37739;50.350;7.578;2022-07-22T06:12:43;100168.59;;;19.46;64.49
47883;BME280;37739;50.350;7.578;2022-07-22T06:15:08;100168.56;;;19.39;64.27
47883;BME280;37739;50.350;7.578;2022-07-22T06:17:36;100171.19;;;19.46;63.83
47883;BME280;37739;50.350;7.578;2022-07-22T06:20:02;100172.13;;;19.52;64.30
47883;BME280;37739;50.350;7.578;2022-07-22T06:22:31;100172.94;;;19.47;64.30
47883;BME280;37739;50.350;7.578;2022-07-22T06:24:58;100172.13;;;19.52;64.15
47883;BME280;37739;50.350;7.578;2022-07-22T06:27:26;100166.22;;;19.75;63.33
47883;BME280;37739;50.350;7.578;2022-07-22T06:29:51;100171.31;;;19.62;63.83
47883;BME280;37739;50.350;7.578;2022-07-22T06:32:19;100175.81;;;19.84;63.76
47883;BME280;37739;50.350;7.578;2022-07-22T06:34:44;100179.22;;;19.73;63.62
47883;BME280;37739;50.350;7.578;2022-07-22T06:37:10;100181.84;;;19.73;63.77
47883;BME280;37739;50.350;7.578;2022-07-22T06:39:37;100182.59;;;19.60;64.09
47883;BME280;37739;50.350;7.578;2022-07-22T06:42:03;100177.38;;;19.65;63.78
47883;BME280;37739;50.350;7.578;2022-07-22T06:44:28;100178.25;;;19.62;63.98
47883;BME280;37739;50.350;7.578;2022-07-22T06:46:56;100178.34;;;19.74;63.28
47883;BME280;37739;50.350;7.578;2022-07-22T06:49:22;100173.06;;;19.62;63.74
47883;BME280;37739;50.350;7.578;2022-07-22T06:51:47;100176.50;;;19.59;63.58
47883;BME280;37739;50.350;7.578;2022-07-22T06:54:12;100172.19;;;19.60;64.12
47883;BME280;37739;50.350;7.578;2022-07-22T06:56:40;100172.22;;;19.69;63.69
47883;BME280;37739;50.350;7.578;2022-07-22T06:59:05;100174.13;;;19.95;62.91
47883;BME280;37739;50.350;7.578;2022-07-22T07:01:33;100175.69;;;19.68;63.11
47883;BME280;37739;50.350;7.578;2022-07-22T07:03:58;100180.00;;;19.66;63.00
47883;BME280;37739;50.350;7.578;2022-07-22T07:06:24;100180.00;;;19.66;62.85
47883;BME280;37739;50.350;7.578;2022-07-22T07:08:49;100176.44;;;19.49;62.58
47883;BME280;37739;50.350;7.578;2022-07-22T07:11:14;100178.22;;;19.56;62.78
47883;BME280;37739;50.350;7.578;2022-07-22T07:13:40;100168.75;;;19.70;62.03
47883;BME280;37739;50.350;7.578;2022-07-22T07:16:05;100167.09;;;19.75;61.46
47883;BME280;37739;50.350;7.578;2022-07-22T07:18:31;100176.63;;;19.75;61.45
47883;BME280;37739;50.350;7.578;2022-07-22T07:20:56;100173.06;;;19.62;61.37
47883;BME280;37739;50.350;7.578;2022-07-22T07:23:21;100172.34;;;19.83;60.50
47883;BME280;37739;50.350;7.578;2022-07-22T07:25:50;100169.78;;;19.97;60.47
47883;BME280;37739;50.350;7.578;2022-07-22T07:28:15;100160.19;;;19.85;60.33
47883;BME280;37739;50.350;7.578;2022-07-22T07:30:40;100156.72;;;19.83;61.22
47883;BME280;37739;50.350;7.578;2022-07-22T07:33:06;100158.50;;;19.96;61.09
47883;BME280;37739;50.350;7.578;2022-07-22T07:35:34;100162.84;;;19.94;61.01
47883;BME280;37739;50.350;7.578;2022-07-22T07:38:02;100156.75;;;19.91;60.57
47883;BME280;37739;50.350;7.578;2022-07-22T07:40:27;100148.13;;;20.07;59.99
47883;BME280;37739;50.350;7.578;2022-07-22T07:42:53;100149.91;;;20.20;60.07
47883;BME280;37739;50.350;7.578;2022-07-22T07:45:18;100144.75;;;20.39;59.57
47883;BME280;37739;50.350;7.578;2022-07-22T07:47:46;100149.13;;;20.46;59.42
47883;BME280;37739;50.350;7.578;2022-07-22T07:50:12;100144.84;;;20.70;58.64
47883;BME280;37739;50.350;7.578;2022-07-22T07:52:42;100130.97;;;21.02;58.42
47883;BME280;37739;50.350;7.578;2022-07-22T07:55:12;100135.28;;;21.21;56.78
47883;BME280;37739;50.350;7.578;2022-07-22T07:57:38;100137.03;;;21.11;57.74
47883;BME280;37739;50.350;7.578;2022-07-22T08:00:06;100143.13;;;20.86;57.48
47883;BME280;37739;50.350;7.578;2022-07-22T08:02:32;100135.28;;;20.66;58.94
47883;BME280;37739;50.350;7.578;2022-07-22T08:04:58;100139.63;;;20.64;58.82
47883;BME280;37739;50.350;7.578;2022-07-22T08:07:23;100135.25;;;20.56;58.60
47883;BME280;37739;50.350;7.578;2022-07-22T08:09:48;100135.28;;;20.64;58.61
47883;BME280;37739;50.350;7.578;2022-07-22T08:12:14;100135.28;;;20.79;58.14
47883;BME280;37739;50.350;7.578;2022-07-22T08:14:39;100130.97;;;20.69;58.60
47883;BME280;37739;50.350;7.578;2022-07-22T08:17:07;100123.13;;;20.74;58.21
47883;BME280;37739;50.350;7.578;2022-07-22T08:19:32;100124.84;;;20.92;58.31
47883;BME280;37739;50.350;7.578;2022-07-22T08:22:00;100123.13;;;21.08;57.08
47883;BME280;37739;50.350;7.578;2022-07-22T08:24:28;100129.22;;;21.19;57.12
47883;BME280;37739;50.350;7.578;2022-07-22T08:26:56;100123.09;;;21.29;57.07
47883;BME280;37739;50.350;7.578;2022-07-22T08:29:26;100118.69;;;21.61;56.45
47883;BME280;37739;50.350;7.578;2022-07-22T08:31:53;100116.91;;;21.80;55.89
47883;BME280;37739;50.350;7.578;2022-07-22T08:34:21;100116.03;;;21.79;55.83
47883;BME280;37739;50.350;7.578;2022-07-22T08:36:48;100118.56;;;21.98;55.02
47883;BME280;37739;50.350;7.578;2022-07-22T08:39:16;100114.16;;;22.10;55.08
47883;BME280;37739;50.350;7.578;2022-07-22T08:41:44;100118.50;;;22.08;54.10
47883;BME280;37739;50.350;7.578;2022-07-22T08:44:09;100112.34;;;22.22;54.15
47883;BME280;37739;50.350;7.578;2022-07-22T08:46:35;100111.34;;;22.46;53.82
47883;BME280;37739;50.350;7.578;2022-07-22T08:49:01;100117.38;;;22.59;52.42
47883;BME280;37739;50.350;7.578;2022-07-22T08:51:27;100116.56;;;22.50;53.22
47883;BME280;37739;50.350;7.578;2022-07-22T08:53:55;100113.72;;;22.78;52.70
47883;BME280;37739;50.350;7.578;2022-07-22T08:56:21;100109.13;;;23.09;52.54
47883;BME280;37739;50.350;7.578;2022-07-22T08:58:46;100110.88;;;23.12;52.29
47883;BME280;37739;50.350;7.578;2022-07-22T09:01:14;100110.88;;;23.12;52.42
47883;BME280;37739;50.350;7.578;2022-07-22T09:03:56;100098.47;;;23.31;51.09
47883;BME280;37739;50.350;7.578;2022-07-22T09:06:27;100093.19;;;23.34;50.72
47883;BME280;37739;50.350;7.578;2022-07-22T09:09:03;100097.38;;;23.52;51.30
47883;BME280;37739;50.350;7.578;2022-07-22T09:11:30;100096.34;;;23.65;50.98
47883;BME280;37739;50.350;7.578;2022-07-22T09:13:58;100098.97;;;23.64;50.18
47883;BME280;37739;50.350;7.578;2022-07-22T09:16:41;100099.06;;;23.58;49.67
47883;BME280;37739;50.350;7.578;2022-07-22T09:19:09;100101.31;;;23.88;50.17
47883;BME280;37739;50.350;7.578;2022-07-22T09:21:37;100096.19;;;23.75;50.32
47883;BME280;37739;50.350;7.578;2022-07-22T09:24:06;100098.72;;;23.87;49.34
47883;BME280;37739;50.350;7.578;2022-07-22T09:26:35;100097.78;;;23.91;49.02
47883;BME280;37739;50.350;7.578;2022-07-22T09:29:02;100100.31;;;23.99;48.63
47883;BME280;37739;50.350;7.578;2022-07-22T09:31:30;100098.13;;;23.62;48.17
47883;BME280;37739;50.350;7.578;2022-07-22T09:34:02;100099.50;;;23.94;48.67
47883;BME280;37739;50.350;7.578;2022-07-22T09:36:28;100092.56;;;23.89;48.76
47883;BME280;37739;50.350;7.578;2022-07-22T09:38:54;100100.84;;;24.24;48.30
47883;BME280;37739;50.350;7.578;2022-07-22T09:41:20;100097.81;;;24.52;47.92
47883;BME280;37739;50.350;7.578;2022-07-22T09:43:45;100088.84;;;24.68;48.02
47883;BME280;37739;50.350;7.578;2022-07-22T09:46:11;100092.00;;;24.88;47.71
47883;BME280;37739;50.350;7.578;2022-07-22T09:48:41;100089.44;;;24.26;47.11
47883;BME280;37739;50.350;7.578;2022-07-22T09:51:08;100087.59;;;24.35;47.17
47883;BME280;37739;50.350;7.578;2022-07-22T09:53:38;100088.47;;;24.32;47.01
47883;BME280;37739;50.350;7.578;2022-07-22T09:56:06;100085.59;;;24.50;47.35
47883;BME280;37739;50.350;7.578;2022-07-22T09:58:34;100082.81;;;24.61;46.76
47883;BME280;37739;50.350;7.578;2022-07-22T10:01:03;100072.44;;;25.06;46.41
47883;BME280;37739;50.350;7.578;2022-07-22T10:03:34;100068.44;;;25.35;46.65
47883;BME280;37739;50.350;7.578;2022-07-22T10:06:06;100068.97;;;25.51;46.29
47883;BME280;37739;50.350;7.578;2022-07-22T10:08:32;100066.94;;;25.65;45.31
47883;BME280;37739;50.350;7.578;2022-07-22T10:11:00;100071.34;;;25.63;45.44
47883;BME280;37739;50.350;7.578;2022-07-22T10:13:26;100074.28;;;25.48;45.91
47883;BME280;37739;50.350;7.578;2022-07-22T10:15:52;100057.63;;;25.51;45.59
47883;BME280;37739;50.350;7.578;2022-07-22T10:18:19;100071.16;;;25.73;45.34
47883;BME280;37739;50.350;7.578;2022-07-22T10:20:45;100062.09;;;25.88;45.05
47883;BME280;37739;50.350;7.578;2022-07-22T10:23:14;100060.19;;;25.96;44.16
47883;BME280;37739;50.350;7.578;2022-07-22T10:25:53;100063.63;;;25.99;43.99
47883;BME280;37739;50.350;7.578;2022-07-22T10:28:37;100057.88;;;26.57;42.96
47883;BME280;37739;50.350;7.578;2022-07-22T10:33:40;100053.66;;;27.20;42.70
47883;BME280;37739;50.350;7.578;2022-07-22T10:36:05;100052.13;;;26.77;41.76
47883;BME280;37739;50.350;7.578;2022-07-22T10:38:31;100051.19;;;26.43;42.44
47883;BME280;37739;50.350;7.578;2022-07-22T10:41:00;100046.56;;;26.53;42.49
47883;BME280;37739;50.350;7.578;2022-07-22T10:43:45;100031.47;;;26.96;42.54
47883;BME280;37739;50.350;7.578;2022-07-22T10:46:11;100034.63;;;27.41;41.87
47883;BME280;37739;50.350;7.578;2022-07-22T10:56:17;100027.34;;;28.09;40.30
47883;BME280;37739;50.350;7.578;2022-07-22T11:01:23;100019.69;;;28.02;39.83
47883;BME280;37739;50.350;7.578;2022-07-22T11:03:54;100014.28;;;27.76;39.07
47883;BME280;37739;50.350;7.578;2022-07-22T11:06:30;100007.66;;;27.63;39.14
47883;BME280;37739;50.350;7.578;2022-07-22T11:08:59;100013.69;;;27.96;39.50
47883;BME280;37739;50.350;7.578;2022-07-22T11:14:21;100016.97;;;27.75;38.78
47883;BME280;37739;50.350;7.578;2022-07-22T11:16:50;100002.56;;;27.57;39.74
47883;BME280;37739;50.350;7.578;2022-07-22T11:19:21;100001.91;;;27.78;39.28
47883;BME280;37739;50.350;7.578;2022-07-22T11:21:50;99998.78;;;28.24;39.19
47883;BME280;37739;50.350;7.578;2022-07-22T11:24:19;99992.94;;;28.14;37.78
47883;BME280;37739;50.350;7.578;2022-07-22T11:26:50;99989.31;;;27.90;38.34
47883;BME280;37739;50.350;7.578;2022-07-22T11:29:30;99992.81;;;28.17;38.85
47883;BME280;37739;50.350;7.578;2022-07-22T11:31:57;99989.22;;;28.19;38.48
47883;BME280;37739;50.350;7.578;2022-07-22T11:34:23;99992.78;;;28.72;38.02
47883;BME280;37739;50.350;7.578;2022-07-22T11:36:49;99990.63;;;28.83;37.18
47883;BME280;37739;50.350;7.578;2022-07-22T11:39:19;99994.00;;;28.87;36.55
47883;BME280;37739;50.350;7.578;2022-07-22T11:41:44;99995.75;;;29.13;35.47
47883;BME280;37739;50.350;7.578;2022-07-22T11:44:10;99996.78;;;29.07;37.24
47883;BME280;37739;50.350;7.578;2022-07-22T11:46:38;99989.16;;;29.00;37.49
47883;BME280;37739;50.350;7.578;2022-07-22T11:49:04;99991.34;;;29.12;36.70
47883;BME280;37739;50.350;7.578;2022-07-22T11:51:30;99988.63;;;29.15;37.08
47883;BME280;37739;50.350;7.578;2022-07-22T11:53:56;99982.59;;;29.35;36.21
47883;BME280;37739;50.350;7.578;2022-07-22T11:56:22;99978.34;;;29.78;35.25
47883;BME280;37739;50.350;7.578;2022-07-22T11:58:51;99973.13;;;29.53;35.91
47883;BME280;37739;50.350;7.578;2022-07-22T12:01:23;99968.72;;;29.30;35.71
47883;BME280;37739;50.350;7.578;2022-07-22T12:03:51;99969.03;;;29.44;36.15
47883;BME280;37739;50.350;7.578;2022-07-22T12:06:21;99964.84;;;29.39;35.81
47883;BME280;37739;50.350;7.578;2022-07-22T12:08:49;99962.28;;;30.05;35.52
47883;BME280;37739;50.350;7.578;2022-07-22T12:11:17;99963.41;;;30.20;35.05
47883;BME280;37739;50.350;7.578;2022-07-22T12:13:45;99952.63;;;30.04;34.81
47883;BME280;37739;50.350;7.578;2022-07-22T12:16:22;99956.31;;;30.00;34.98
47883;BME280;37739;50.350;7.578;2022-07-22T12:18:58;99957.78;;;30.27;34.40
47883;BME280;37739;50.350;7.578;2022-07-22T12:21:27;99947.41;;;30.23;35.28
47883;BME280;37739;50.350;7.578;2022-07-22T12:24:01;99947.00;;;30.11;33.97
47883;BME280;37739;50.350;7.578;2022-07-22T12:26:47;99944.19;;;30.16;34.19
47883;BME280;37739;50.350;7.578;2022-07-22T12:29:50;99942.59;;;29.90;35.44
47883;BME280;37739;50.350;7.578;2022-07-22T12:32:34;99928.63;;;30.51;33.72
47883;BME280;37739;50.350;7.578;2022-07-22T12:35:01;99930.03;;;30.58;33.78
47883;BME280;37739;50.350;7.578;2022-07-22T12:37:42;99935.03;;;30.03;34.32
47883;BME280;37739;50.350;7.578;2022-07-22T12:47:50;99924.50;;;30.01;34.39
47883;BME280;37739;50.350;7.578;2022-07-22T12:52:47;99926.25;;;29.80;35.33
47883;BME280;37739;50.350;7.578;2022-07-22T12:55:12;99926.22;;;30.65;34.69
47883;BME280;37739;50.350;7.578;2022-07-22T12:57:43;99924.41;;;30.86;34.17
47883;BME280;37739;50.350;7.578;2022-07-22T13:00:09;99920.22;;;31.01;32.83
47883;BME280;37739;50.350;7.578;2022-07-22T13:02:37;99915.84;;;30.61;33.41
47883;BME280;37739;50.350;7.578;2022-07-22T13:05:07;99915.22;;;31.33;33.13
47883;BME280;37739;50.350;7.578;2022-07-22T13:07:35;99910.00;;;31.50;30.73
47883;BME280;37739;50.350;7.578;2022-07-22T13:10:03;99910.84;;;31.32;31.70
47883;BME280;37739;50.350;7.578;2022-07-22T13:12:28;99904.91;;;31.08;32.10
47883;BME280;37739;50.350;7.578;2022-07-22T13:14:54;99904.66;;;31.69;30.93
47883;BME280;37739;50.350;7.578;2022-07-22T13:17:19;99889.53;;;32.08;31.68